Terminal Aerodrome Forecast
Issued by NWS Wilmington, OH

Current Version | Previous Version | Graphics & Text | Print | Product List | Glossary On
Versions: 1 2 3 4 5 6 7 8 9 10 11 12 13 14 15 16
808
FTUS41 KILN 222341 AAA
TAFCMH
TAF AMD
KCMH 222341Z 2300/2324 05010KT P6SM BKN100
     FM230500 04011KT P6SM VCSH BKN080
     FM231100 03012KT 5SM -RA BR SCT015 OVC050
     FM231500 03010KT 3SM -RA BR BKN018 OVC040
     FM232000 02009KT 5SM BR VCSH OVC015=

USA.gov is the U.S. government's official web portal to all federal, state and local government web resources and services.